sensor_id;sensor_type;location;lat;lon;timestamp;pressure;altitude;pressure_sealevel;temperature;humidity
17505;BME280;8870;50.950;11.762;2023-01-08T00:01:23;97716.78;;;5.46;100.00
17505;BME280;8870;50.950;11.762;2023-01-08T00:06:54;97727.47;;;5.46;100.00
17505;BME280;8870;50.950;11.762;2023-01-08T00:12:28;97732.00;;;5.45;100.00
17505;BME280;8870;50.950;11.762;2023-01-08T00:17:47;97719.31;;;5.47;100.00
17505;BME280;8870;50.950;11.762;2023-01-08T00:23:20;97705.22;;;5.55;100.00
17505;BME280;8870;50.950;11.762;2023-01-08T00:28:41;97703.09;;;5.59;100.00
17505;BME280;8870;50.950;11.762;2023-01-08T00:34:13;97685.06;;;5.61;100.00
17505;BME280;8870;50.950;11.762;2023-01-08T00:39:31;97684.09;;;5.62;100.00
17505;BME280;8870;50.950;11.762;2023-01-08T00:45:10;97674.72;;;5.58;100.00
17505;BME280;8870;50.950;11.762;2023-01-08T00:50:28;97667.28;;;5.51;100.00
17505;BME280;8870;50.950;11.762;2023-01-08T00:56:00;97667.56;;;5.48;100.00
17505;BME280;8870;50.950;11.762;2023-01-08T01:01:21;97684.44;;;5.49;100.00
17505;BME280;8870;50.950;11.762;2023-01-08T01:06:52;97656.31;;;5.45;100.00
17505;BME280;8870;50.950;11.762;2023-01-08T01:12:11;97666.47;;;5.41;100.00
17505;BME280;8870;50.950;11.762;2023-01-08T01:17:45;97672.41;;;5.35;100.00
17505;BME280;8870;50.950;11.762;2023-01-08T01:23:03;97681.41;;;5.34;100.00
17505;BME280;8870;50.950;11.762;2023-01-08T01:28:34;97684.09;;;5.34;100.00
17505;BME280;8870;50.950;11.762;2023-01-08T01:33:55;97672.69;;;5.32;100.00
17505;BME280;8870;50.950;11.762;2023-01-08T01:39:27;97667.66;;;5.29;100.00
17505;BME280;8870;50.950;11.762;2023-01-08T01:44:45;97667.09;;;5.25;100.00
17505;BME280;8870;50.950;11.762;2023-01-08T01:50:22;97672.72;;;5.22;100.00
17505;BME280;8870;50.950;11.762;2023-01-08T01:55:43;97669.22;;;5.21;100.00
17505;BME280;8870;50.950;11.762;2023-01-08T02:01:16;97654.19;;;5.20;100.00
17505;BME280;8870;50.950;11.762;2023-01-08T02:06:40;97640.84;;;5.20;100.00
17505;BME280;8870;50.950;11.762;2023-01-08T02:12:16;97632.13;;;5.18;100.00
17505;BME280;8870;50.950;11.762;2023-01-08T02:17:43;97635.19;;;5.23;100.00
17505;BME280;8870;50.950;11.762;2023-01-08T02:23:26;97617.88;;;5.28;100.00
17505;BME280;8870;50.950;11.762;2023-01-08T02:28:52;97615.63;;;5.33;100.00
17505;BME280;8870;50.950;11.762;2023-01-08T02:34:25;97605.19;;;5.39;100.00
17505;BME280;8870;50.950;11.762;2023-01-08T02:39:54;97617.41;;;5.42;100.00
17505;BME280;8870;50.950;11.762;2023-01-08T02:45:42;97571.00;;;5.43;100.00
17505;BME280;8870;50.950;11.762;2023-01-08T02:51:06;97578.16;;;5.43;100.00
17505;BME280;8870;50.950;11.762;2023-01-08T02:56:41;97594.34;;;5.41;100.00
17505;BME280;8870;50.950;11.762;2023-01-08T03:02:17;97586.34;;;5.41;100.00
17505;BME280;8870;50.950;11.762;2023-01-08T03:07:40;97585.81;;;5.37;100.00
17505;BME280;8870;50.950;11.762;2023-01-08T03:13:15;97589.22;;;5.30;100.00
17505;BME280;8870;50.950;11.762;2023-01-08T03:18:43;97584.44;;;5.23;100.00
17505;BME280;8870;50.950;11.762;2023-01-08T03:24:17;97558.34;;;5.17;100.00
17505;BME280;8870;50.950;11.762;2023-01-08T03:29:38;97576.88;;;5.19;100.00
17505;BME280;8870;50.950;11.762;2023-01-08T03:35:14;97580.78;;;5.24;100.00
17505;BME280;8870;50.950;11.762;2023-01-08T03:40:39;97581.91;;;5.32;100.00
17505;BME280;8870;50.950;11.762;2023-01-08T03:46:15;97575.25;;;5.36;100.00
17505;BME280;8870;50.950;11.762;2023-01-08T03:51:44;97576.47;;;5.42;100.00
17505;BME280;8870;50.950;11.762;2023-01-08T03:57:16;97579.81;;;5.53;100.00
17505;BME280;8870;50.950;11.762;2023-01-08T04:02:35;97556.13;;;5.59;100.00
17505;BME280;8870;50.950;11.762;2023-01-08T04:08:11;97560.88;;;5.65;100.00
17505;BME280;8870;50.950;11.762;2023-01-08T04:13:30;97555.25;;;5.68;100.00
17505;BME280;8870;50.950;11.762;2023-01-08T04:19:03;97546.91;;;5.71;100.00
17505;BME280;8870;50.950;11.762;2023-01-08T04:24:24;97555.31;;;5.76;100.00
17505;BME280;8870;50.950;11.762;2023-01-08T04:29:55;97541.50;;;5.81;100.00
17505;BME280;8870;50.950;11.762;2023-01-08T04:35:14;97537.06;;;5.90;100.00
17505;BME280;8870;50.950;11.762;2023-01-08T04:40:47;97527.44;;;5.97;100.00
17505;BME280;8870;50.950;11.762;2023-01-08T04:46:06;97526.16;;;6.01;100.00
17505;BME280;8870;50.950;11.762;2023-01-08T04:51:37;97524.88;;;6.05;100.00
17505;BME280;8870;50.950;11.762;2023-01-08T04:56:57;97520.34;;;6.06;100.00
17505;BME280;8870;50.950;11.762;2023-01-08T05:02:32;97523.41;;;6.11;100.00
17505;BME280;8870;50.950;11.762;2023-01-08T05:07:51;97501.16;;;6.10;100.00
17505;BME280;8870;50.950;11.762;2023-01-08T05:13:24;97510.22;;;6.17;100.00
17505;BME280;8870;50.950;11.762;2023-01-08T05:18:43;97508.25;;;6.20;100.00
17505;BME280;8870;50.950;11.762;2023-01-08T05:24:15;97498.66;;;6.35;100.00
17505;BME280;8870;50.950;11.762;2023-01-08T05:29:35;97493.34;;;6.43;100.00
17505;BME280;8870;50.950;11.762;2023-01-08T05:35:09;97503.06;;;6.44;100.00
17505;BME280;8870;50.950;11.762;2023-01-08T05:40:27;97506.72;;;6.43;100.00
17505;BME280;8870;50.950;11.762;2023-01-08T05:46:01;97503.59;;;6.48;100.00
17505;BME280;8870;50.950;11.762;2023-01-08T05:51:20;97495.72;;;6.46;100.00
17505;BME280;8870;50.950;11.762;2023-01-08T05:56:51;97493.72;;;6.48;100.00
17505;BME280;8870;50.950;11.762;2023-01-08T06:02:11;97493.06;;;6.46;100.00
17505;BME280;8870;50.950;11.762;2023-01-08T06:07:44;97494.09;;;6.54;100.00
17505;BME280;8870;50.950;11.762;2023-01-08T06:13:05;97509.53;;;6.60;100.00
17505;BME280;8870;50.950;11.762;2023-01-08T06:18:39;97509.03;;;6.65;100.00
17505;BME280;8870;50.950;11.762;2023-01-08T06:23:58;97487.63;;;6.65;100.00
17505;BME280;8870;50.950;11.762;2023-01-08T06:29:29;97507.88;;;6.67;100.00
17505;BME280;8870;50.950;11.762;2023-01-08T06:34:49;97500.00;;;6.66;100.00
17505;BME280;8870;50.950;11.762;2023-01-08T06:40:21;97463.38;;;6.66;100.00
17505;BME280;8870;50.950;11.762;2023-01-08T06:45:39;97471.25;;;6.68;100.00
17505;BME280;8870;50.950;11.762;2023-01-08T06:51:13;97497.16;;;6.67;100.00
17505;BME280;8870;50.950;11.762;2023-01-08T06:56:32;97498.03;;;6.68;100.00
17505;BME280;8870;50.950;11.762;2023-01-08T07:02:11;97505.19;;;6.67;100.00
17505;BME280;8870;50.950;11.762;2023-01-08T07:07:35;97491.00;;;6.67;100.00
17505;BME280;8870;50.950;11.762;2023-01-08T07:13:07;97486.16;;;6.70;100.00
17505;BME280;8870;50.950;11.762;2023-01-08T07:18:27;97461.06;;;6.71;100.00
17505;BME280;8870;50.950;11.762;2023-01-08T07:24:00;97448.38;;;6.73;100.00
17505;BME280;8870;50.950;11.762;2023-01-08T07:29:19;97456.41;;;6.73;100.00
17505;BME280;8870;50.950;11.762;2023-01-08T07:34:51;97437.66;;;6.73;100.00
17505;BME280;8870;50.950;11.762;2023-01-08T07:40:16;97448.88;;;6.77;100.00
17505;BME280;8870;50.950;11.762;2023-01-08T07:45:48;97462.25;;;6.77;100.00
17505;BME280;8870;50.950;11.762;2023-01-08T07:51:19;97453.38;;;6.76;100.00
17505;BME280;8870;50.950;11.762;2023-01-08T07:56:39;97446.38;;;6.75;100.00
17505;BME280;8870;50.950;11.762;2023-01-08T08:02:11;97451.72;;;6.75;100.00
17505;BME280;8870;50.950;11.762;2023-01-08T08:07:42;97459.06;;;6.73;100.00
17505;BME280;8870;50.950;11.762;2023-01-08T08:13:02;97443.00;;;6.73;100.00
17505;BME280;8870;50.950;11.762;2023-01-08T08:18:34;97430.97;;;6.77;100.00
17505;BME280;8870;50.950;11.762;2023-01-08T08:23:52;97406.72;;;6.79;100.00
17505;BME280;8870;50.950;11.762;2023-01-08T08:29:25;97419.59;;;6.75;100.00
17505;BME280;8870;50.950;11.762;2023-01-08T08:34:44;97426.28;;;6.79;100.00
17505;BME280;8870;50.950;11.762;2023-01-08T08:40:16;97425.28;;;6.81;100.00
17505;BME280;8870;50.950;11.762;2023-01-08T08:45:38;97433.69;;;6.86;100.00
17505;BME280;8870;50.950;11.762;2023-01-08T08:51:09;97428.34;;;6.94;100.00
17505;BME280;8870;50.950;11.762;2023-01-08T08:56:27;97432.03;;;7.01;100.00
17505;BME280;8870;50.950;11.762;2023-01-08T09:02:00;97420.00;;;7.05;100.00
17505;BME280;8870;50.950;11.762;2023-01-08T09:07:32;97425.06;;;7.08;100.00
17505;BME280;8870;50.950;11.762;2023-01-08T09:12:51;97427.38;;;7.12;100.00
17505;BME280;8870;50.950;11.762;2023-01-08T09:18:25;97441.44;;;7.14;100.00
17505;BME280;8870;50.950;11.762;2023-01-08T09:23:44;97435.94;;;7.15;100.00
17505;BME280;8870;50.950;11.762;2023-01-08T09:29:18;97441.81;;;7.19;100.00
17505;BME280;8870;50.950;11.762;2023-01-08T09:34:38;97435.47;;;7.20;100.00
17505;BME280;8870;50.950;11.762;2023-01-08T09:40:14;97433.28;;;7.23;100.00
17505;BME280;8870;50.950;11.762;2023-01-08T09:45:35;97442.31;;;7.31;100.00
17505;BME280;8870;50.950;11.762;2023-01-08T09:51:12;97442.00;;;7.34;100.00
17505;BME280;8870;50.950;11.762;2023-01-08T09:56:33;97439.00;;;7.37;100.00
17505;BME280;8870;50.950;11.762;2023-01-08T10:02:12;97438.81;;;7.38;100.00
17505;BME280;8870;50.950;11.762;2023-01-08T10:07:33;97437.66;;;7.41;100.00
17505;BME280;8870;50.950;11.762;2023-01-08T10:12:58;97441.00;;;7.43;100.00
17505;BME280;8870;50.950;11.762;2023-01-08T10:18:25;97435.50;;;7.45;100.00
17505;BME280;8870;50.950;11.762;2023-01-08T10:23:52;97419.75;;;7.50;100.00
17505;BME280;8870;50.950;11.762;2023-01-08T10:29:23;97397.31;;;7.51;100.00
17505;BME280;8870;50.950;11.762;2023-01-08T10:34:44;97398.66;;;7.55;100.00
17505;BME280;8870;50.950;11.762;2023-01-08T10:40:25;97385.94;;;7.57;100.00
17505;BME280;8870;50.950;11.762;2023-01-08T10:45:55;97380.38;;;7.59;100.00
17505;BME280;8870;50.950;11.762;2023-01-08T10:51:29;97376.53;;;7.61;100.00
17505;BME280;8870;50.950;11.762;2023-01-08T10:56:50;97371.50;;;7.66;100.00
17505;BME280;8870;50.950;11.762;2023-01-08T11:02:32;97369.84;;;7.65;100.00
17505;BME280;8870;50.950;11.762;2023-01-08T11:07:56;97366.81;;;7.68;100.00
17505;BME280;8870;50.950;11.762;2023-01-08T11:13:30;97363.13;;;7.69;100.00
17505;BME280;8870;50.950;11.762;2023-01-08T11:18:50;97365.47;;;7.72;100.00
17505;BME280;8870;50.950;11.762;2023-01-08T11:24:24;97352.72;;;7.75;100.00
17505;BME280;8870;50.950;11.762;2023-01-08T11:29:51;97361.44;;;7.77;100.00
17505;BME280;8870;50.950;11.762;2023-01-08T11:35:27;97340.47;;;7.80;100.00
17505;BME280;8870;50.950;11.762;2023-01-08T11:40:50;97327.41;;;7.85;100.00
17505;BME280;8870;50.950;11.762;2023-01-08T11:46:32;97324.88;;;7.92;100.00
17505;BME280;8870;50.950;11.762;2023-01-08T11:52:03;97323.00;;;8.01;100.00
17505;BME280;8870;50.950;11.762;2023-01-08T11:57:53;97329.69;;;8.05;100.00
17505;BME280;8870;50.950;11.762;2023-01-08T12:03:25;97316.47;;;8.04;100.00
17505;BME280;8870;50.950;11.762;2023-01-08T12:09:09;97301.38;;;8.02;100.00
17505;BME280;8870;50.950;11.762;2023-01-08T12:14:42;97308.44;;;8.04;100.00
17505;BME280;8870;50.950;11.762;2023-01-08T12:20:23;97307.91;;;8.00;100.00
17505;BME280;8870;50.950;11.762;2023-01-08T12:26:02;97304.91;;;8.03;100.00
17505;BME280;8870;50.950;11.762;2023-01-08T12:31:55;97301.91;;;7.98;100.00
17505;BME280;8870;50.950;11.762;2023-01-08T12:37:25;97287.31;;;8.00;100.00
17505;BME280;8870;50.950;11.762;2023-01-08T12:42:59;97278.78;;;7.97;100.00
17505;BME280;8870;50.950;11.762;2023-01-08T12:48:26;97280.44;;;7.98;100.00
17505;BME280;8870;50.950;11.762;2023-01-08T12:54:08;97265.72;;;7.94;100.00
17505;BME280;8870;50.950;11.762;2023-01-08T12:59:37;97255.16;;;7.92;100.00
17505;BME280;8870;50.950;11.762;2023-01-08T13:05:11;97251.47;;;7.93;100.00
17505;BME280;8870;50.950;11.762;2023-01-08T13:10:52;97249.81;;;7.92;100.00
17505;BME280;8870;50.950;11.762;2023-01-08T13:16:20;97239.06;;;7.92;100.00
17505;BME280;8870;50.950;11.762;2023-01-08T13:21:54;97234.06;;;7.89;100.00
17505;BME280;8870;50.950;11.762;2023-01-08T13:27:29;97229.38;;;7.83;100.00
17505;BME280;8870;50.950;11.762;2023-01-08T13:33:00;97227.06;;;7.80;100.00
17505;BME280;8870;50.950;11.762;2023-01-08T13:38:20;97231.56;;;7.79;100.00
17505;BME280;8870;50.950;11.762;2023-01-08T13:43:59;97217.69;;;7.76;100.00
17505;BME280;8870;50.950;11.762;2023-01-08T13:49:25;97204.47;;;7.74;100.00
17505;BME280;8870;50.950;11.762;2023-01-08T13:55:01;97212.97;;;7.78;100.00
17505;BME280;8870;50.950;11.762;2023-01-08T14:00:27;97221.69;;;7.80;100.00
17505;BME280;8870;50.950;11.762;2023-01-08T14:06:06;97226.06;;;7.81;100.00
17505;BME280;8870;50.950;11.762;2023-01-08T14:11:43;97221.47;;;7.90;100.00
17505;BME280;8870;50.950;11.762;2023-01-08T14:17:05;97213.22;;;7.99;100.00
17505;BME280;8870;50.950;11.762;2023-01-08T14:22:40;97218.25;;;8.02;100.00
17505;BME280;8870;50.950;11.762;2023-01-08T14:28:01;97228.59;;;8.06;100.00
17505;BME280;8870;50.950;11.762;2023-01-08T14:33:36;97223.06;;;8.07;100.00
17505;BME280;8870;50.950;11.762;2023-01-08T14:38:56;97223.94;;;7.99;100.00
17505;BME280;8870;50.950;11.762;2023-01-08T14:44:27;97215.22;;;7.97;100.00
17505;BME280;8870;50.950;11.762;2023-01-08T14:49:52;97214.28;;;7.90;100.00
17505;BME280;8870;50.950;11.762;2023-01-08T14:55:24;97216.31;;;7.80;100.00
17505;BME280;8870;50.950;11.762;2023-01-08T15:00:49;97225.53;;;7.77;100.00
17505;BME280;8870;50.950;11.762;2023-01-08T15:06:28;97219.69;;;7.74;100.00
17505;BME280;8870;50.950;11.762;2023-01-08T15:12:01;97220.88;;;7.71;100.00
17505;BME280;8870;50.950;11.762;2023-01-08T15:17:20;97223.06;;;7.67;100.00
17505;BME280;8870;50.950;11.762;2023-01-08T15:22:54;97208.00;;;7.66;100.00
17505;BME280;8870;50.950;11.762;2023-01-08T15:28:14;97201.97;;;7.64;100.00
17505;BME280;8870;50.950;11.762;2023-01-08T15:33:47;97187.56;;;7.65;100.00
17505;BME280;8870;50.950;11.762;2023-01-08T15:39:09;97202.63;;;7.66;100.00
17505;BME280;8870;50.950;11.762;2023-01-08T15:44:41;97189.56;;;7.63;100.00
17505;BME280;8870;50.950;11.762;2023-01-08T15:49:59;97169.13;;;7.62;100.00
17505;BME280;8870;50.950;11.762;2023-01-08T15:55:33;97167.97;;;7.56;100.00
17505;BME280;8870;50.950;11.762;2023-01-08T16:00:51;97173.88;;;7.52;100.00
17505;BME280;8870;50.950;11.762;2023-01-08T16:06:22;97175.22;;;7.48;100.00
17505;BME280;8870;50.950;11.762;2023-01-08T16:11:55;97184.78;;;7.42;100.00
17505;BME280;8870;50.950;11.762;2023-01-08T16:17:14;97197.00;;;7.36;100.00
17505;BME280;8870;50.950;11.762;2023-01-08T16:22:45;97197.72;;;7.30;100.00
17505;BME280;8870;50.950;11.762;2023-01-08T16:28:06;97198.03;;;7.27;100.00
17505;BME280;8870;50.950;11.762;2023-01-08T16:33:37;97189.66;;;7.30;100.00
17505;BME280;8870;50.950;11.762;2023-01-08T16:38:55;97194.84;;;7.32;100.00
17505;BME280;8870;50.950;11.762;2023-01-08T16:44:28;97166.38;;;7.31;100.00
17505;BME280;8870;50.950;11.762;2023-01-08T16:49:47;97170.91;;;7.30;100.00
17505;BME280;8870;50.950;11.762;2023-01-08T16:55:18;97179.28;;;7.27;100.00
17505;BME280;8870;50.950;11.762;2023-01-08T17:00:39;97165.56;;;7.30;100.00
17505;BME280;8870;50.950;11.762;2023-01-08T17:06:13;97143.13;;;7.31;100.00
17505;BME280;8870;50.950;11.762;2023-01-08T17:11:44;97148.16;;;7.34;100.00
17505;BME280;8870;50.950;11.762;2023-01-08T17:17:05;97140.94;;;7.35;100.00
17505;BME280;8870;50.950;11.762;2023-01-08T17:22:36;97119.69;;;7.33;100.00
17505;BME280;8870;50.950;11.762;2023-01-08T17:27:54;97100.06;;;7.33;100.00
17505;BME280;8870;50.950;11.762;2023-01-08T17:33:28;97098.41;;;7.32;100.00
17505;BME280;8870;50.950;11.762;2023-01-08T17:38:47;97086.38;;;7.28;100.00
17505;BME280;8870;50.950;11.762;2023-01-08T17:44:18;97089.22;;;7.26;100.00
17505;BME280;8870;50.950;11.762;2023-01-08T17:49:39;97086.06;;;7.22;100.00
17505;BME280;8870;50.950;11.762;2023-01-08T17:55:10;97075.88;;;7.18;100.00
17505;BME280;8870;50.950;11.762;2023-01-08T18:00:28;97065.81;;;7.12;100.00
17505;BME280;8870;50.950;11.762;2023-01-08T18:06:07;97071.56;;;7.08;100.00
17505;BME280;8870;50.950;11.762;2023-01-08T18:11:38;97078.91;;;7.06;100.00
17505;BME280;8870;50.950;11.762;2023-01-08T18:16:57;97078.44;;;7.03;100.00
17505;BME280;8870;50.950;11.762;2023-01-08T18:22:30;97071.41;;;7.02;100.00
17505;BME280;8870;50.950;11.762;2023-01-08T18:27:49;97061.22;;;6.97;100.00
17505;BME280;8870;50.950;11.762;2023-01-08T18:33:20;97053.50;;;6.94;100.00
17505;BME280;8870;50.950;11.762;2023-01-08T18:38:43;97037.13;;;6.89;100.00
17505;BME280;8870;50.950;11.762;2023-01-08T18:44:14;97041.69;;;6.80;100.00
17505;BME280;8870;50.950;11.762;2023-01-08T18:49:33;97035.81;;;6.76;100.00
17505;BME280;8870;50.950;11.762;2023-01-08T18:55:07;97045.69;;;6.76;100.00
17505;BME280;8870;50.950;11.762;2023-01-08T19:00:26;97042.19;;;6.75;100.00
17505;BME280;8870;50.950;11.762;2023-01-08T19:05:57;97039.53;;;6.75;100.00
17505;BME280;8870;50.950;11.762;2023-01-08T19:11:31;97040.53;;;6.74;100.00
17505;BME280;8870;50.950;11.762;2023-01-08T19:16:49;97026.16;;;6.75;100.00
17505;BME280;8870;50.950;11.762;2023-01-08T19:22:20;97019.28;;;6.73;100.00
17505;BME280;8870;50.950;11.762;2023-01-08T19:27:43;97011.44;;;6.71;100.00
17505;BME280;8870;50.950;11.762;2023-01-08T19:33:14;96997.38;;;6.69;100.00
17505;BME280;8870;50.950;11.762;2023-01-08T19:38:32;96992.53;;;6.65;100.00
17505;BME280;8870;50.950;11.762;2023-01-08T19:44:06;96975.66;;;6.64;100.00
17505;BME280;8870;50.950;11.762;2023-01-08T19:49:24;96987.72;;;6.60;100.00
17505;BME280;8870;50.950;11.762;2023-01-08T19:54:55;96982.34;;;6.60;100.00
17505;BME280;8870;50.950;11.762;2023-01-08T20:00:18;96982.34;;;6.60;100.00
17505;BME280;8870;50.950;11.762;2023-01-08T20:05:50;96984.84;;;6.61;100.00
17505;BME280;8870;50.950;11.762;2023-01-08T20:11:10;96970.31;;;6.56;100.00
17505;BME280;8870;50.950;11.762;2023-01-08T20:16:45;96962.13;;;6.49;100.00
17505;BME280;8870;50.950;11.762;2023-01-08T20:22:03;96959.31;;;6.42;100.00
17505;BME280;8870;50.950;11.762;2023-01-08T20:27:36;96963.34;;;6.38;100.00
17505;BME280;8870;50.950;11.762;2023-01-08T20:33:05;96973.72;;;6.33;100.00
17505;BME280;8870;50.950;11.762;2023-01-08T20:38:38;96968.06;;;6.28;100.00
17505;BME280;8870;50.950;11.762;2023-01-08T20:43:57;96953.88;;;6.19;100.00
17505;BME280;8870;50.950;11.762;2023-01-08T20:49:33;96949.19;;;6.13;100.00
17505;BME280;8870;50.950;11.762;2023-01-08T20:54:51;96933.66;;;6.08;100.00
17505;BME280;8870;50.950;11.762;2023-01-08T21:00:22;96928.81;;;6.04;100.00
17505;BME280;8870;50.950;11.762;2023-01-08T21:05:50;96922.44;;;5.96;100.00
17505;BME280;8870;50.950;11.762;2023-01-08T21:11:22;96920.63;;;5.89;100.00
17505;BME280;8870;50.950;11.762;2023-01-08T21:16:41;96918.59;;;5.82;100.00
17505;BME280;8870;50.950;11.762;2023-01-08T21:22:16;96916.44;;;5.78;100.00
17505;BME280;8870;50.950;11.762;2023-01-08T21:27:34;96912.44;;;5.74;100.00
17505;BME280;8870;50.950;11.762;2023-01-08T21:33:05;96897.56;;;5.71;100.00
17505;BME280;8870;50.950;11.762;2023-01-08T21:38:28;96886.56;;;5.74;100.00
17505;BME280;8870;50.950;11.762;2023-01-08T21:44:00;96882.88;;;5.75;100.00
17505;BME280;8870;50.950;11.762;2023-01-08T21:49:30;96873.53;;;5.71;100.00
17505;BME280;8870;50.950;11.762;2023-01-08T21:55:04;96861.84;;;5.72;100.00
17505;BME280;8870;50.950;11.762;2023-01-08T22:00:22;96852.34;;;5.69;100.00
17505;BME280;8870;50.950;11.762;2023-01-08T22:05:56;96848.84;;;5.69;100.00
17505;BME280;8870;50.950;11.762;2023-01-08T22:11:30;96845.50;;;5.67;100.00
17505;BME280;8870;50.950;11.762;2023-01-08T22:16:49;96845.81;;;5.64;100.00
17505;BME280;8870;50.950;11.762;2023-01-08T22:22:20;96848.81;;;5.61;100.00
17505;BME280;8870;50.950;11.762;2023-01-08T22:27:41;96840.84;;;5.52;100.00
17505;BME280;8870;50.950;11.762;2023-01-08T22:33:15;96837.00;;;5.47;100.00
17505;BME280;8870;50.950;11.762;2023-01-08T22:38:34;96841.19;;;5.41;100.00
17505;BME280;8870;50.950;11.762;2023-01-08T22:44:10;96831.81;;;5.37;100.00
17505;BME280;8870;50.950;11.762;2023-01-08T22:49:28;96828.16;;;5.30;100.00
17505;BME280;8870;50.950;11.762;2023-01-08T22:55:00;96818.81;;;5.25;100.00
17505;BME280;8870;50.950;11.762;2023-01-08T23:00:21;96817.97;;;5.25;100.00
17505;BME280;8870;50.950;11.762;2023-01-08T23:05:59;96806.28;;;5.34;100.00
17505;BME280;8870;50.950;11.762;2023-01-08T23:11:31;96801.28;;;5.31;100.00
17505;BME280;8870;50.950;11.762;2023-01-08T23:16:52;96797.13;;;5.29;100.00
17505;BME280;8870;50.950;11.762;2023-01-08T23:22:23;96790.44;;;5.24;100.00
17505;BME280;8870;50.950;11.762;2023-01-08T23:27:41;96776.59;;;5.21;100.00
17505;BME280;8870;50.950;11.762;2023-01-08T23:33:15;96769.59;;;5.20;100.00
17505;BME280;8870;50.950;11.762;2023-01-08T23:38:33;96763.44;;;5.19;100.00
17505;BME280;8870;50.950;11.762;2023-01-08T23:44:06;96760.75;;;5.19;100.00
17505;BME280;8870;50.950;11.762;2023-01-08T23:49:34;96747.56;;;5.18;100.00
17505;BME280;8870;50.950;11.762;2023-01-08T23:55:06;96750.06;;;5.19;100.00
